Time;durP1;ratioP1;P1;durP2;ratioP2;P2;SDS_P1;SDS_P2;PMS_P1;PMS_P2;Temp;Humidity;BMP_temperature;BMP_pressure;BME280_temperature;BME280_humidity;BME280_pressure;Samples;Min_cycle;Max_cycle;Signal;HPM_P1;HPM_P2
2023/07/07 00:00:07;;;;;;;6.60;4.07;;;15.40;99.90;;;;;;5065553;28;20040;-78
2023/07/07 00:02:33;;;;;;;7.05;4.28;;;15.30;99.90;;;;;;5047418;28;20146;-78
2023/07/07 00:04:59;;;;;;;6.80;4.50;;;15.30;99.90;;;;;;5047194;28;20028;-78
2023/07/07 00:07:24;;;;;;;7.20;4.55;;;15.40;99.90;;;;;;5046842;28;20327;-78
2023/07/07 00:09:50;;;;;;;8.73;4.68;;;15.40;99.90;;;;;;5050575;28;20059;-79
2023/07/07 00:12:16;;;;;;;7.13;5.28;;;15.30;99.90;;;;;;5045321;28;20059;-79
2023/07/07 00:14:42;;;;;;;7.65;5.20;;;15.40;99.90;;;;;;5043019;28;20036;-78
2023/07/07 00:17:12;;;;;;;8.05;4.60;;;15.30;99.90;;;;;;5077469;28;20041;-79
2023/07/07 00:19:38;;;;;;;7.78;5.72;;;15.30;99.90;;;;;;5043476;28;20052;-79
2023/07/07 00:22:06;;;;;;;6.35;4.80;;;15.20;99.90;;;;;;5060634;28;20028;-80
2023/07/07 00:24:33;;;;;;;7.25;5.13;;;15.20;99.90;;;;;;5079140;28;20345;-78
2023/07/07 00:27:00;;;;;;;6.70;5.03;;;15.20;99.90;;;;;;5060552;28;20028;-78
2023/07/07 00:29:26;;;;;;;8.73;5.10;;;15.20;99.90;;;;;;5060797;28;20107;-79
2023/07/07 00:31:52;;;;;;;8.02;4.95;;;15.20;99.90;;;;;;5077973;28;20037;-80
2023/07/07 00:34:17;;;;;;;6.57;4.88;;;15.10;99.90;;;;;;5043902;28;20031;-79
2023/07/07 00:36:43;;;;;;;7.18;5.05;;;15.20;99.90;;;;;;5044090;28;20032;-78
2023/07/07 00:39:09;;;;;;;7.85;5.15;;;15.10;99.90;;;;;;5071579;28;20039;-78
2023/07/07 00:41:35;;;;;;;7.72;5.28;;;15.10;99.90;;;;;;5042010;28;20314;-80
2023/07/07 00:44:07;;;;;;;10.63;6.15;;;15.10;99.90;;;;;;5058940;28;20326;-77
2023/07/07 00:46:33;;;;;;;8.32;5.85;;;15.10;99.90;;;;;;5074397;28;20230;-79
2023/07/07 00:49:02;;;;;;;7.68;5.75;;;15.10;99.90;;;;;;5077154;28;20051;-79
2023/07/07 00:51:33;;;;;;;7.18;5.70;;;15.00;99.90;;;;;;5058657;28;20032;-78
2023/07/07 00:54:03;;;;;;;9.25;5.80;;;15.10;99.90;;;;;;5059777;28;20075;-77
2023/07/07 00:56:39;;;;;;;6.93;5.85;;;15.00;99.90;;;;;;5066486;28;20041;-78
2023/07/07 00:59:09;;;;;;;9.98;6.22;;;15.00;99.90;;;;;;5061553;28;20054;-77
2023/07/07 01:01:36;;;;;;;6.18;5.10;;;15.00;99.90;;;;;;5062396;28;20028;-78
2023/07/07 01:04:06;;;;;;;6.28;5.10;;;15.00;99.90;;;;;;5044948;28;20410;-78
2023/07/07 01:06:38;;;;;;;10.43;5.10;;;15.00;99.90;;;;;;5078238;28;20063;-79
2023/07/07 01:09:11;;;;;;;8.63;5.88;;;14.90;99.90;;;;;;5062541;28;20032;-79
2023/07/07 01:11:37;;;;;;;9.18;5.93;;;14.90;99.90;;;;;;5060804;28;20024;-79
2023/07/07 01:14:09;;;;;;;9.77;6.63;;;14.80;99.90;;;;;;5033766;28;20037;-78
2023/07/07 01:16:38;;;;;;;9.55;6.65;;;14.90;99.90;;;;;;5055718;28;20032;-78
2023/07/07 01:19:18;;;;;;;10.85;6.28;;;14.90;99.90;;;;;;5056583;28;20225;-81
2023/07/07 01:22:18;;;;;;;7.43;5.97;;;14.80;99.90;;;;;;5075019;28;20036;-78
2023/07/07 01:25:17;;;;;;;8.70;6.10;;;14.70;99.90;;;;;;5060846;28;20221;-81
2023/07/07 01:27:53;;;;;;;10.70;6.68;;;14.70;99.90;;;;;;5061357;28;20322;-79
2023/07/07 01:30:25;;;;;;;8.48;6.10;;;14.70;99.90;;;;;;5090096;28;20039;-78
2023/07/07 01:32:52;;;;;;;8.07;6.35;;;14.60;99.90;;;;;;5078475;28;20025;-78
2023/07/07 01:35:20;;;;;;;7.75;6.38;;;14.60;99.90;;;;;;5063472;28;20035;-77
2023/07/07 01:38:06;;;;;;;7.53;5.93;;;14.60;99.90;;;;;;5075739;28;20021;-79
2023/07/07 01:40:34;;;;;;;;;;;14.70;99.90;;;;;;5070597;28;20110;-78
2023/07/07 01:43:07;;;;;;;8.10;5.60;;;14.70;99.90;;;;;;5075393;28;19912;-78
2023/07/07 01:45:45;;;;;;;8.60;6.25;;;14.70;99.90;;;;;;5064181;28;20036;-80
2023/07/07 01:48:31;;;;;;;7.45;5.97;;;14.70;99.90;;;;;;5057964;28;20339;-77
2023/07/07 01:50:59;;;;;;;7.25;6.18;;;14.70;99.90;;;;;;5056794;28;20462;-80
2023/07/07 01:53:27;;;;;;;11.75;6.85;;;14.60;99.90;;;;;;5076664;28;20078;-78
2023/07/07 01:55:57;;;;;;;9.85;6.97;;;14.70;99.90;;;;;;5067625;28;20032;-79
2023/07/07 01:58:26;;;;;;;10.90;7.57;;;14.80;99.90;;;;;;5059941;28;20040;-79
2023/07/07 02:00:55;;;;;;;10.52;7.13;;;14.70;99.90;;;;;;5060108;28;20036;-80
2023/07/07 02:03:21;;;;;;;8.85;6.80;;;14.80;99.90;;;;;;5053640;28;20052;-78
2023/07/07 02:05:48;;;;;;;10.40;7.97;;;14.80;99.90;;;;;;5054922;28;20024;-80
2023/07/07 02:08:14;;;;;;;8.77;7.10;;;14.90;99.90;;;;;;5071331;28;20036;-78
2023/07/07 02:10:40;;;;;;;7.97;6.90;;;14.90;99.90;;;;;;5041438;28;20090;-80
2023/07/07 02:13:06;;;;;;;9.18;7.65;;;15.00;99.90;;;;;;5061594;28;20035;-79
2023/07/07 02:15:32;;;;;;;11.52;8.10;;;14.90;99.90;;;;;;5051718;28;20021;-81
2023/07/07 02:17:58;;;;;;;9.02;8.13;;;15.00;99.90;;;;;;5043208;28;20033;-77
2023/07/07 02:20:24;;;;;;;10.85;8.60;;;15.00;99.90;;;;;;5059311;28;20037;-79
2023/07/07 02:22:50;;;;;;;9.27;8.30;;;15.10;99.90;;;;;;5073016;28;20149;-80
2023/07/07 02:25:16;;;;;;;11.18;8.32;;;15.00;99.90;;;;;;5040715;28;20036;-79
2023/07/07 02:27:42;;;;;;;10.77;8.70;;;15.10;99.90;;;;;;5059854;28;20036;-79
2023/07/07 02:30:08;;;;;;;10.93;8.52;;;15.00;99.90;;;;;;5056310;28;20077;-82
2023/07/07 02:32:34;;;;;;;10.52;8.23;;;14.90;99.90;;;;;;5073972;28;20032;-82
2023/07/07 02:35:02;;;;;;;10.00;8.90;;;15.00;99.90;;;;;;5040883;28;20212;-79
2023/07/07 02:37:28;;;;;;;10.38;9.27;;;15.00;99.90;;;;;;5056876;28;20029;-78
2023/07/07 02:39:56;;;;;;;12.20;8.77;;;15.00;99.90;;;;;;5041196;28;20095;-76
2023/07/07 02:42:22;;;;;;;16.88;8.98;;;15.10;99.90;;;;;;5041302;28;20103;-77
2023/07/07 02:44:48;;;;;;;11.43;9.20;;;15.00;99.90;;;;;;5059830;28;20047;-78
2023/07/07 02:47:14;;;;;;;10.45;8.40;;;15.00;99.90;;;;;;5057852;28;20119;-79
2023/07/07 02:49:40;;;;;;;12.15;9.77;;;15.00;99.90;;;;;;5040363;28;20052;-79
2023/07/07 02:52:07;;;;;;;9.35;7.95;;;15.00;99.90;;;;;;5056441;28;20023;-79
2023/07/07 02:54:33;;;;;;;9.80;8.82;;;15.00;99.90;;;;;;5074998;28;20051;-79
2023/07/07 02:56:59;;;;;;;10.75;9.65;;;15.00;99.90;;;;;;5059514;28;20036;-80
2023/07/07 02:59:24;;;;;;;13.77;9.55;;;14.90;99.90;;;;;;5072542;28;20033;-80
2023/07/07 03:01:50;;;;;;;11.43;9.32;;;14.90;99.90;;;;;;5031563;28;20059;-78
2023/07/07 03:04:16;;;;;;;11.60;9.35;;;14.90;99.90;;;;;;5049149;28;20033;-80
2023/07/07 03:06:42;;;;;;;12.05;9.73;;;15.00;99.90;;;;;;5077413;28;20040;-79
2023/07/07 03:09:09;;;;;;;9.77;8.57;;;14.90;99.90;;;;;;5067861;28;20051;-81
2023/07/07 03:11:34;;;;;;;12.05;8.80;;;14.90;99.90;;;;;;5073323;28;20054;-78
2023/07/07 03:14:00;;;;;;;10.98;9.55;;;14.90;99.90;;;;;;5075657;28;20020;-79
2023/07/07 03:16:31;;;;;;;11.98;9.68;;;14.90;99.90;;;;;;5087610;28;20028;-79
2023/07/07 03:19:03;;;;;;;12.20;8.30;;;14.90;99.90;;;;;;5068471;28;20126;-81
2023/07/07 03:21:31;;;;;;;11.48;9.35;;;14.90;99.90;;;;;;5060174;28;20042;-79
2023/07/07 03:23:57;;;;;;;11.00;9.90;;;14.80;99.90;;;;;;5050930;28;20032;-78
2023/07/07 03:26:25;;;;;;;16.20;9.40;;;14.80;99.90;;;;;;5055102;28;20025;-80
2023/07/07 03:28:51;;;;;;;10.65;9.40;;;14.80;99.90;;;;;;5063824;28;20103;-78
2023/07/07 03:31:23;;;;;;;12.18;10.35;;;14.80;99.90;;;;;;5047392;28;20035;-79
2023/07/07 03:33:51;;;;;;;13.25;9.55;;;14.70;99.90;;;;;;5047060;28;20215;-77
2023/07/07 03:36:21;;;;;;;12.32;9.13;;;14.70;99.90;;;;;;5087050;28;20032;-80
2023/07/07 03:38:47;;;;;;;12.43;9.63;;;14.70;99.90;;;;;;5069278;28;20103;-82
2023/07/07 03:41:16;;;;;;;11.02;9.60;;;14.60;99.90;;;;;;5080358;28;20039;-79
2023/07/07 03:43:44;;;;;;;12.85;9.65;;;14.70;99.90;;;;;;5078022;28;20361;-81
2023/07/07 03:46:15;;;;;;;13.75;9.05;;;14.70;99.90;;;;;;5062477;28;20056;-79
2023/07/07 03:48:41;;;;;;;10.38;9.27;;;14.60;99.90;;;;;;5057359;28;21208;-80
2023/07/07 03:51:08;;;;;;;12.35;10.32;;;14.70;99.90;;;;;;5079553;28;20117;-84
2023/07/07 03:53:34;;;;;;;11.25;9.40;;;14.70;99.90;;;;;;5056574;28;20090;-81
2023/07/07 03:56:00;;;;;;;10.10;9.00;;;14.70;99.90;;;;;;5077152;28;20319;-81
2023/07/07 03:58:27;;;;;;;12.55;9.70;;;14.70;99.90;;;;;;5046475;28;20086;-81
2023/07/07 04:00:53;;;;;;;12.38;9.73;;;14.80;99.90;;;;;;5077051;28;20040;-80
2023/07/07 04:03:19;;;;;;;13.13;9.93;;;14.80;99.90;;;;;;5076880;28;20256;-81
2023/07/07 04:05:47;;;;;;;13.77;10.48;;;14.90;99.90;;;;;;5065243;28;20035;-79
2023/07/07 04:08:15;;;;;;;11.40;9.93;;;14.90;99.90;;;;;;5048630;28;20089;-80
2023/07/07 04:10:41;;;;;;;12.45;9.68;;;14.90;99.90;;;;;;5047278;28;20025;-81
2023/07/07 04:13:07;;;;;;;14.48;10.50;;;15.00;99.90;;;;;;5070236;28;20039;-81
2023/07/07 04:15:33;;;;;;;12.77;10.70;;;15.00;99.90;;;;;;5053763;28;20031;-78
2023/07/07 04:17:59;;;;;;;12.55;9.68;;;15.10;99.90;;;;;;5046080;28;20052;-80
2023/07/07 04:20:26;;;;;;;11.18;10.00;;;15.10;99.90;;;;;;5039480;28;20036;-79
2023/07/07 04:22:52;;;;;;;14.02;10.77;;;15.10;99.90;;;;;;5046631;28;20099;-78
2023/07/07 04:25:18;;;;;;;12.40;9.85;;;15.10;99.90;;;;;;5061808;28;20207;-78
2023/07/07 04:27:45;;;;;;;14.73;10.70;;;15.20;99.90;;;;;;5068213;28;20027;-77
2023/07/07 04:30:11;;;;;;;13.77;9.88;;;15.30;99.90;;;;;;5072954;28;20040;-79
2023/07/07 04:32:39;;;;;;;12.43;10.48;;;15.40;99.90;;;;;;5079177;28;20392;-79
2023/07/07 04:35:05;;;;;;;14.15;11.00;;;15.40;99.90;;;;;;5056242;28;20028;-78
2023/07/07 04:37:31;;;;;;;11.48;10.27;;;15.40;99.90;;;;;;5048190;28;20028;-79
2023/07/07 04:39:57;;;;;;;12.13;10.75;;;15.40;99.90;;;;;;5033842;28;20036;-80
2023/07/07 04:42:23;;;;;;;12.70;10.82;;;15.50;99.90;;;;;;5045864;28;20180;-83
2023/07/07 04:44:49;;;;;;;13.57;11.48;;;15.50;99.90;;;;;;5075715;28;20099;-80
2023/07/07 04:47:15;;;;;;;11.95;10.70;;;15.50;99.90;;;;;;5052809;28;20068;-79
2023/07/07 04:49:41;;;;;;;12.30;10.35;;;15.60;99.90;;;;;;5030323;28;20041;-78
2023/07/07 04:52:07;;;;;;;16.30;10.93;;;15.60;99.90;;;;;;5046768;28;20032;-78
2023/07/07 04:54:35;;;;;;;15.57;10.70;;;15.70;99.90;;;;;;5045952;28;20024;-80
2023/07/07 04:57:03;;;;;;;13.90;10.77;;;15.80;99.90;;;;;;5089322;28;20273;-80
2023/07/07 04:59:31;;;;;;;17.70;11.73;;;15.80;99.90;;;;;;5039964;28;20039;-80
2023/07/07 05:01:57;;;;;;;15.23;10.98;;;15.80;99.90;;;;;;5054015;28;20024;-83
2023/07/07 05:04:22;;;;;;;15.85;11.27;;;15.80;99.90;;;;;;5050460;28;20047;-79
2023/07/07 05:06:48;;;;;;;13.13;10.05;;;15.80;99.90;;;;;;5071902;28;20075;-77
2023/07/07 05:09:16;;;;;;;16.60;11.90;;;16.00;99.90;;;;;;5055141;28;20094;-79
2023/07/07 05:11:42;;;;;;;11.38;9.68;;;16.00;99.90;;;;;;5047700;28;20074;-77
2023/07/07 05:14:08;;;;;;;13.52;11.95;;;16.10;99.90;;;;;;5048743;28;20051;-81
2023/07/07 05:16:36;;;;;;;13.00;10.75;;;16.10;99.90;;;;;;5080021;28;20089;-77
2023/07/07 05:19:02;;;;;;;17.92;11.48;;;16.20;99.90;;;;;;5080038;28;20086;-80
2023/07/07 05:21:28;;;;;;;13.73;11.27;;;16.30;99.90;;;;;;5064112;28;20033;-77
2023/07/07 05:23:55;;;;;;;12.15;10.85;;;16.40;99.90;;;;;;5062902;28;20321;-80
2023/07/07 05:26:23;;;;;;;14.02;11.30;;;16.40;99.90;;;;;;5066258;28;20025;-82
2023/07/07 05:28:51;;;;;;;16.08;11.63;;;16.50;99.90;;;;;;5055270;28;20032;-79
2023/07/07 05:31:16;;;;;;;14.57;12.07;;;16.50;99.90;;;;;;5038859;28;20036;-79
2023/07/07 05:33:42;;;;;;;11.73;10.55;;;16.50;99.90;;;;;;5070778;28;20199;-79
2023/07/07 05:36:09;;;;;;;14.15;11.45;;;16.60;99.90;;;;;;5042359;28;20035;-78
2023/07/07 05:38:37;;;;;;;14.63;10.77;;;16.70;99.90;;;;;;5061629;28;20036;-82
2023/07/07 05:41:03;;;;;;;15.15;11.52;;;16.70;99.90;;;;;;5055698;28;20028;-76
2023/07/07 05:43:50;;;;;;;14.55;11.35;;;16.80;99.90;;;;;;5013314;27;20395;-87
2023/07/07 05:46:18;;;;;;;14.82;11.55;;;16.90;99.90;;;;;;5061842;28;20052;-87
2023/07/07 05:48:44;;;;;;;12.48;10.40;;;16.90;99.90;;;;;;5001809;28;20458;-87
2023/07/07 05:51:15;;;;;;;13.75;11.43;;;17.10;99.90;;;;;;4958782;28;20081;-88
2023/07/07 05:53:43;;;;;;;13.02;11.10;;;17.10;99.90;;;;;;4988694;28;20095;-86
2023/07/07 05:56:23;;;;;;;12.93;10.82;;;17.10;99.90;;;;;;4999182;28;20042;-87
2023/07/07 05:58:50;;;;;;;11.30;9.93;;;17.10;99.90;;;;;;4981595;28;20038;-87
2023/07/07 06:01:16;;;;;;;14.18;10.80;;;17.30;99.90;;;;;;4988350;28;20384;-87
2023/07/07 06:03:43;;;;;;;13.82;11.38;;;17.40;99.90;;;;;;4980543;28;20037;-87
2023/07/07 06:06:09;;;;;;;16.20;11.07;;;17.50;99.90;;;;;;4985969;28;20115;-86
2023/07/07 06:08:35;;;;;;;12.02;9.82;;;17.60;99.90;;;;;;4985905;28;20087;-89
2023/07/07 06:11:01;;;;;;;11.80;10.60;;;17.60;99.90;;;;;;4980629;28;20026;-87
2023/07/07 06:13:28;;;;;;;12.70;9.68;;;17.70;99.90;;;;;;5014633;28;20033;-86
2023/07/07 06:15:55;;;;;;;13.20;8.90;;;17.90;99.90;;;;;;4980115;28;20072;-86
2023/07/07 06:18:22;;;;;;;11.00;8.98;;;18.10;99.90;;;;;;4991886;28;20095;-87
2023/07/07 06:20:48;;;;;;;12.55;9.50;;;18.20;99.90;;;;;;4985600;28;20057;-86
2023/07/07 06:23:15;;;;;;;10.45;8.95;;;18.20;99.90;;;;;;5081239;28;20424;-88
2023/07/07 06:25:41;;;;;;;11.23;9.15;;;18.30;99.90;;;;;;4998396;28;20438;-87
2023/07/07 06:28:06;;;;;;;12.20;8.52;;;18.60;99.90;;;;;;4973937;28;20129;-87
2023/07/07 06:30:32;;;;;;;9.35;8.48;;;18.70;99.90;;;;;;5075489;28;20045;-88
2023/07/07 06:32:58;;;;;;;11.48;7.85;;;18.70;99.90;;;;;;5050037;28;20047;-87
2023/07/07 06:35:27;;;;;;;11.88;8.32;;;19.00;99.90;;;;;;5084138;28;20187;-88
2023/07/07 06:37:53;;;;;;;12.65;9.07;;;18.90;99.90;;;;;;4967240;28;20049;-87
2023/07/07 06:40:19;;;;;;;9.82;8.18;;;19.30;99.90;;;;;;4972381;28;20058;-88
2023/07/07 06:42:45;;;;;;;8.73;7.75;;;19.40;99.90;;;;;;4968425;28;20418;-87
2023/07/07 06:45:11;;;;;;;10.70;7.80;;;19.50;99.90;;;;;;5042089;28;20039;-88
2023/07/07 06:47:36;;;;;;;10.40;7.53;;;19.70;99.90;;;;;;5087874;28;20152;-88
2023/07/07 06:50:02;;;;;;;7.38;6.65;;;19.90;99.90;;;;;;4997164;28;20292;-89
2023/07/07 06:52:28;;;;;;;9.88;6.78;;;20.20;99.90;;;;;;4976523;28;20045;-88
2023/07/07 06:54:57;;;;;;;9.60;7.50;;;20.40;99.90;;;;;;5080501;27;20038;-88
2023/07/07 06:57:23;;;;;;;8.05;7.00;;;20.60;99.90;;;;;;4959983;28;20038;-88
2023/07/07 06:59:54;;;;;;;8.73;6.10;;;20.80;99.90;;;;;;5008019;28;20047;-89
2023/07/07 07:02:20;;;;;;;9.02;5.80;;;20.90;99.90;;;;;;4939796;28;20051;-87
2023/07/07 07:04:46;;;;;;;7.25;6.32;;;21.00;99.90;;;;;;4951955;28;20381;-88
2023/07/07 07:07:12;;;;;;;6.28;5.65;;;20.90;99.90;;;;;;4961381;28;20451;-88
2023/07/07 07:09:37;;;;;;;11.75;6.68;;;21.00;99.90;;;;;;4965752;28;20074;-88
2023/07/07 07:12:04;;;;;;;7.85;5.78;;;21.10;99.90;;;;;;4958968;28;20107;-90
2023/07/07 07:14:30;;;;;;;8.35;6.05;;;21.30;99.90;;;;;;4969995;28;20046;-87
2023/07/07 07:16:57;;;;;;;6.50;5.80;;;21.50;99.90;;;;;;4948022;28;20050;-88
2023/07/07 07:19:23;;;;;;;6.32;5.20;;;21.60;99.90;;;;;;4956171;28;20042;-88
2023/07/07 07:21:49;;;;;;;8.48;5.75;;;21.70;99.90;;;;;;4955745;28;20131;-88
2023/07/07 07:24:19;;;;;;;6.82;4.38;;;21.80;99.90;;;;;;4955660;28;20039;-89
2023/07/07 07:26:45;;;;;;;7.00;4.78;;;21.80;99.90;;;;;;4955271;28;20117;-90
2023/07/07 07:29:14;;;;;;;9.27;6.22;;;21.90;99.90;;;;;;4946706;28;20042;-89
2023/07/07 07:31:41;;;;;;;4.95;4.13;;;22.00;99.90;;;;;;4978856;28;20042;-90
2023/07/07 07:34:23;;;;;;;5.82;4.80;;;22.20;99.90;;;;;;5023048;28;20517;-88
2023/07/07 07:36:51;;;;;;;7.03;4.93;;;22.20;99.90;;;;;;4955074;28;20062;-88
2023/07/07 07:39:17;;;;;;;6.45;4.90;;;22.20;99.90;;;;;;5056438;28;20085;-89
2023/07/07 07:41:46;;;;;;;8.52;4.30;;;22.30;99.90;;;;;;5008640;28;20043;-88
2023/07/07 07:44:16;;;;;;;7.68;4.40;;;22.30;99.90;;;;;;4974540;28;20833;-88
2023/07/07 07:46:44;;;;;;;6.50;3.80;;;22.30;99.90;;;;;;4955937;28;20046;-89
2023/07/07 07:49:10;;;;;;;6.47;4.10;;;22.50;99.90;;;;;;5075806;28;20035;-88
2023/07/07 07:51:38;;;;;;;5.20;4.00;;;22.60;99.90;;;;;;4956198;28;20042;-88
2023/07/07 07:54:08;;;;;;;5.72;3.70;;;22.60;99.90;;;;;;4958254;28;20046;-88
2023/07/07 07:56:34;;;;;;;8.00;4.63;;;22.80;99.90;;;;;;4975784;28;20439;-87
2023/07/07 07:59:00;;;;;;;6.97;3.80;;;22.60;99.90;;;;;;4980501;28;20107;-89
2023/07/07 08:01:27;;;;;;;4.90;3.67;;;22.60;99.90;;;;;;4970893;28;20048;-88
2023/07/07 08:03:54;;;;;;;6.65;3.40;;;22.70;99.90;;;;;;5074633;28;20521;-88
2023/07/07 08:06:20;;;;;;;5.80;3.65;;;22.90;99.90;;;;;;4961752;28;20034;-89
2023/07/07 08:08:46;;;;;;;8.43;3.92;;;22.80;99.90;;;;;;5058581;28;20039;-89
2023/07/07 08:11:19;;;;;;;5.55;4.00;;;22.90;99.90;;;;;;4956906;28;20105;-89
2023/07/07 08:13:45;;;;;;;3.67;2.85;;;23.00;99.90;;;;;;4982386;28;20069;-87
2023/07/07 08:16:11;;;;;;;5.45;3.22;;;23.00;99.90;;;;;;4973451;28;20073;-88
2023/07/07 08:18:38;;;;;;;7.25;3.45;;;23.10;99.90;;;;;;4957436;28;20044;-89
2023/07/07 08:21:05;;;;;;;5.07;3.08;;;22.90;99.90;;;;;;4971929;28;20092;-89
2023/07/07 08:23:31;;;;;;;3.00;2.70;;;23.20;99.90;;;;;;4969783;28;20038;-89
2023/07/07 08:25:57;;;;;;;5.43;2.65;;;23.40;99.90;;;;;;4958447;28;20042;-90
2023/07/07 08:28:29;;;;;;;6.45;3.00;;;23.30;99.90;;;;;;4963544;28;20116;-89
2023/07/07 08:30:55;;;;;;;5.68;3.25;;;23.50;99.90;;;;;;4992880;28;20045;-89
2023/07/07 08:33:21;;;;;;;3.58;3.05;;;23.60;99.90;;;;;;4947589;28;20037;-90
2023/07/07 08:35:46;;;;;;;4.57;2.83;;;23.60;99.90;;;;;;4992793;28;20077;-89
2023/07/07 08:38:12;;;;;;;3.92;2.75;;;23.70;99.90;;;;;;4957280;28;20374;-89
2023/07/07 08:40:46;;;;;;;4.25;2.70;;;23.70;99.90;;;;;;4980340;28;20037;-89
2023/07/07 08:43:12;;;;;;;3.42;2.58;;;23.80;99.90;;;;;;5064588;28;20559;-89
2023/07/07 08:45:46;;;;;;;4.38;2.67;;;23.90;99.90;;;;;;5052247;28;20051;-88
2023/07/07 08:48:15;;;;;;;2.97;2.65;;;23.90;99.90;;;;;;5057201;28;20042;-89
2023/07/07 08:50:51;;;;;;;3.70;2.50;;;24.10;99.90;;;;;;4975963;28;20050;-89
2023/07/07 08:53:30;;;;;;;4.38;2.40;;;24.10;99.90;;;;;;5061013;28;20044;-90
2023/07/07 08:56:13;;;;;;;4.03;2.53;;;24.10;72.90;;;;;;4983493;28;20038;-90
2023/07/07 08:58:52;;;;;;;3.85;2.97;;;24.10;29.70;;;;;;5064575;28;20172;-89
2023/07/07 09:01:36;;;;;;;3.38;2.25;;;24.40;44.50;;;;;;4965653;28;20042;-89
2023/07/07 09:04:46;;;;;;;2.63;2.38;;;24.40;1.00;;;;;;4972458;28;20130;-88
2023/07/07 09:07:28;;;;;;;3.38;2.20;;;24.70;39.10;;;;;;4974155;28;20057;-89
2023/07/07 09:10:38;;;;;;;29.48;5.03;;;24.70;19.10;;;;;;5069500;28;20033;-88
2023/07/07 09:13:31;;;;;;;3.25;2.15;;;24.90;5.80;;;;;;4966208;28;20081;-88
2023/07/07 09:16:17;;;;;;;5.13;2.45;;;25.10;1.00;;;;;;4972343;28;20035;-89
2023/07/07 09:19:10;;;;;;;5.00;2.53;;;25.40;1.00;;;;;;5069483;28;20038;-87
2023/07/07 09:21:42;;;;;;;4.15;2.40;;;25.60;1.00;;;;;;5062120;28;20058;-89
2023/07/07 09:24:22;;;;;;;2.78;2.38;;;25.70;1.00;;;;;;4972904;28;20386;-89
2023/07/07 09:26:52;;;;;;;4.28;2.50;;;26.00;1.00;;;;;;4978609;28;20141;-89
2023/07/07 09:29:25;;;;;;;3.03;2.30;;;26.30;1.00;;;;;;4960169;28;20076;-89
2023/07/07 09:31:52;;;;;;;2.67;2.05;;;26.60;1.00;;;;;;5058940;28;20047;-89
2023/07/07 09:34:19;;;;;;;3.15;2.10;;;26.60;1.00;;;;;;5073063;28;20045;-88
2023/07/07 09:36:54;;;;;;;4.50;2.42;;;26.50;1.00;;;;;;4985844;28;20121;-88
2023/07/07 09:39:26;;;;;;;3.20;2.42;;;26.50;99.90;;;;;;4981662;28;20045;-89
2023/07/07 09:42:19;;;;;;;2.72;1.92;;;26.80;1.00;;;;;;4983878;28;20042;-87
2023/07/07 09:44:57;;;;;;;3.58;2.50;;;26.80;99.90;;;;;;4960151;28;20043;-87
2023/07/07 09:47:42;;;;;;;3.42;2.22;;;27.00;99.90;;;;;;5010834;28;20042;-87
2023/07/07 09:50:22;;;;;;;2.63;2.17;;;27.00;99.90;;;;;;5075801;28;20038;-90
2023/07/07 09:53:22;;;;;;;2.95;2.10;;;27.40;1.00;;;;;;4975051;28;20406;-89
2023/07/07 09:55:53;;;;;;;3.60;2.13;;;27.50;99.90;;;;;;4973805;28;20065;-89
2023/07/07 09:58:35;;;;;;;4.25;2.38;;;27.60;99.90;;;;;;4963349;28;20042;-88
2023/07/07 10:01:03;;;;;;;2.45;1.92;;;27.80;99.90;;;;;;4986608;28;20072;-88
2023/07/07 10:03:49;;;;;;;4.93;2.60;;;27.50;99.90;;;;;;4992953;28;20077;-88
2023/07/07 10:06:41;;;;;;;3.33;2.00;;;27.90;99.90;;;;;;4973350;28;20482;-89
2023/07/07 10:09:11;;;;;;;2.63;2.15;;;28.30;99.90;;;;;;4993424;28;20066;-89
2023/07/07 10:11:42;;;;;;;4.20;2.30;;;28.10;99.90;;;;;;4967083;28;20074;-89
2023/07/07 10:14:12;;;;;;;3.40;2.30;;;28.40;99.90;;;;;;4979955;28;20099;-90
2023/07/07 10:17:10;;;;;;;4.88;2.50;;;28.70;99.90;;;;;;4975896;28;20086;-88
2023/07/07 10:19:52;;;;;;;3.03;2.17;;;28.30;99.90;;;;;;5005312;28;20131;-89
2023/07/07 10:22:19;;;;;;;4.10;2.17;;;28.40;99.90;;;;;;5068829;28;20042;-89
2023/07/07 10:24:47;;;;;;;3.58;2.38;;;28.70;99.90;;;;;;4989441;28;20398;-89
2023/07/07 10:27:16;;;;;;;4.70;2.38;;;29.30;99.90;;;;;;4968600;28;20439;-88
2023/07/07 10:29:43;;;;;;;3.08;2.15;;;29.20;99.90;;;;;;4971817;28;20129;-88
2023/07/07 10:32:20;;;;;;;2.80;2.38;;;29.70;99.90;;;;;;4975071;28;20099;-88
2023/07/07 10:34:57;;;;;;;3.85;2.28;;;29.00;99.90;;;;;;4971112;28;20082;-88
2023/07/07 10:37:34;;;;;;;2.97;2.15;;;28.70;99.90;;;;;;5064280;28;20065;-88
2023/07/07 10:40:01;;;;;;;3.70;2.45;;;28.60;99.90;;;;;;4959334;28;20489;-88
2023/07/07 10:42:29;;;;;;;3.85;2.53;;;27.80;99.90;;;;;;4955871;28;20421;-87
2023/07/07 10:45:00;;;;;;;3.50;2.22;;;27.40;99.90;;;;;;5056702;28;20100;-88
2023/07/07 10:47:29;;;;;;;3.53;2.13;;;27.80;99.90;;;;;;4974316;28;20457;-89
2023/07/07 10:49:56;;;;;;;2.70;2.10;;;28.50;99.90;;;;;;4994823;28;20514;-88
2023/07/07 10:52:43;;;;;;;4.15;2.50;;;29.00;99.90;;;;;;4978726;28;20034;-89
2023/07/07 10:55:29;;;;;;;3.00;2.20;;;28.60;99.90;;;;;;5063465;28;20146;-89
2023/07/07 10:58:33;;;;;;;3.10;2.40;;;28.90;99.90;;;;;;4958563;28;20078;-87
2023/07/07 11:01:17;;;;;;;5.07;3.00;;;28.70;99.90;;;;;;5096648;28;20046;-88
2023/07/07 11:03:58;;;;;;;;;;;28.60;99.90;;;;;;4979083;28;20301;-89
2023/07/07 11:06:39;;;;;;;3.22;2.42;;;28.70;99.90;;;;;;4974546;28;19926;-89
2023/07/07 11:09:23;;;;;;;3.00;2.67;;;28.20;99.90;;;;;;4974393;28;20095;-88
2023/07/07 11:12:28;;;;;;;3.70;2.70;;;28.60;99.90;;;;;;4974864;28;20049;-89
2023/07/07 11:15:04;;;;;;;5.25;2.80;;;28.70;99.90;;;;;;5072147;28;20156;-89
2023/07/07 11:17:47;;;;;;;2.95;2.45;;;28.70;99.90;;;;;;5056444;28;20035;-88
2023/07/07 11:20:41;;;;;;;2.35;2.10;;;29.20;99.90;;;;;;4980259;28;20046;-90
2023/07/07 11:23:41;;;;;;;3.70;2.67;;;29.10;99.90;;;;;;5012958;28;20054;-88
2023/07/07 11:26:52;;;;;;;4.57;2.65;;;28.30;99.90;;;;;;4984543;28;20111;-89
2023/07/07 11:29:36;;;;;;;3.75;2.40;;;28.70;99.90;;;;;;4982358;28;20042;-89
2023/07/07 11:32:21;;;;;;;2.95;2.22;;;29.50;99.90;;;;;;4974603;28;20042;-89
2023/07/07 11:35:06;;;;;;;4.50;2.70;;;29.50;99.90;;;;;;4967309;28;20053;-89
2023/07/07 11:37:44;;;;;;;3.60;2.40;;;29.10;99.90;;;;;;4980089;28;20042;-90
2023/07/07 11:40:39;;;;;;;2.78;2.25;;;28.90;99.90;;;;;;4975908;28;20091;-89
2023/07/07 11:43:20;;;;;;;3.33;2.50;;;28.40;99.90;;;;;;4986769;28;20170;-89
2023/07/07 11:46:15;;;;;;;4.47;2.90;;;28.30;99.90;;;;;;5016634;28;20046;-88
2023/07/07 11:48:50;;;;;;;2.70;2.30;;;28.70;99.90;;;;;;4972722;28;20497;-89
2023/07/07 11:51:22;;;;;;;4.97;2.35;;;29.10;99.90;;;;;;4974215;28;20047;-90
2023/07/07 11:54:14;;;;;;;3.72;2.13;;;29.50;99.90;;;;;;4969382;28;20042;-89
2023/07/07 11:57:14;;;;;;;3.25;2.45;;;29.70;99.90;;;;;;5082233;28;20049;-89
2023/07/07 11:59:54;;;;;;;3.72;2.92;;;29.20;99.90;;;;;;4981885;28;20034;-89
2023/07/07 12:02:35;;;;;;;3.40;2.35;;;29.50;99.90;;;;;;4989781;28;20104;-90
2023/07/07 12:05:03;;;;;;;2.83;2.47;;;29.30;99.90;;;;;;5034275;28;20509;-89
2023/07/07 12:07:35;;;;;;;3.22;2.33;;;28.90;99.90;;;;;;5021905;28;20048;-88
2023/07/07 12:10:18;;;;;;;3.90;2.65;;;28.80;99.90;;;;;;4959005;28;20414;-88
2023/07/07 12:12:50;;;;;;;2.42;2.22;;;29.20;99.90;;;;;;4998986;28;20046;-89
2023/07/07 12:15:25;;;;;;;3.42;2.60;;;29.70;99.90;;;;;;4970851;28;20051;-89
2023/07/07 12:18:08;;;;;;;3.67;2.60;;;29.50;99.90;;;;;;4989802;28;20052;-88
2023/07/07 12:20:41;;;;;;;4.53;2.63;;;29.40;99.90;;;;;;5068075;28;20197;-89
2023/07/07 12:23:15;;;;;;;2.55;2.17;;;29.20;99.90;;;;;;4971964;28;20038;-89
2023/07/07 12:25:41;;;;;;;;;;;29.00;99.90;;;;;;4975362;28;20081;-88
2023/07/07 12:28:09;;;;;;;3.05;2.40;;;29.20;99.90;;;;;;4980144;28;20334;-90
2023/07/07 12:30:42;;;;;;;4.47;2.25;;;28.30;99.90;;;;;;5063515;28;20099;-90
2023/07/07 12:33:10;;;;;;;3.00;2.50;;;28.50;99.90;;;;;;4980413;28;20731;-90
2023/07/07 12:35:52;;;;;;;4.22;2.50;;;28.90;99.90;;;;;;4958298;28;20038;-89
2023/07/07 12:38:33;;;;;;;3.33;2.50;;;28.80;99.90;;;;;;4973948;28;20420;-91
2023/07/07 12:41:04;;;;;;;4.57;2.40;;;28.70;99.90;;;;;;5055436;28;20050;-89
2023/07/07 12:43:35;;;;;;;5.28;2.42;;;29.10;99.90;;;;;;4970774;28;20839;-89
2023/07/07 12:46:03;;;;;;;2.30;2.10;;;29.00;99.90;;;;;;4973943;28;20046;-90
2023/07/07 12:48:29;;;;;;;2.85;2.45;;;29.20;99.90;;;;;;4973287;28;20390;-89
2023/07/07 12:51:07;;;;;;;2.70;2.17;;;29.70;99.90;;;;;;4966692;28;20035;-88
2023/07/07 12:53:41;;;;;;;2.78;2.20;;;29.10;99.90;;;;;;4938440;28;20053;-90
2023/07/07 12:56:10;;;;;;;3.03;2.33;;;29.50;99.90;;;;;;4971812;28;20037;-90
2023/07/07 12:58:38;;;;;;;3.65;2.28;;;29.20;99.90;;;;;;4983966;28;20068;-88
2023/07/07 13:01:26;;;;;;;3.55;2.80;;;28.90;99.90;;;;;;4973192;28;20932;-89
2023/07/07 13:04:07;;;;;;;3.00;2.38;;;29.10;99.90;;;;;;4964455;28;20042;-88